createdAt,value
2022-12-14T00:01:49.513Z,80.29
2022-12-14T00:04:18.679Z,79.99
2022-12-14T00:06:47.344Z,79.97
2022-12-14T00:09:18.112Z,80.24
2022-12-14T00:11:46.805Z,79.98
2022-12-14T00:14:15.554Z,80.20
2022-12-14T00:16:44.276Z,79.92
2022-12-14T00:19:13.029Z,79.84
2022-12-14T00:21:41.693Z,79.70
2022-12-14T00:24:12.384Z,79.77
2022-12-14T00:26:41.062Z,79.62
2022-12-14T00:29:09.883Z,80.30
2022-12-14T00:31:40.045Z,79.88
2022-12-14T00:34:09.127Z,80.18
2022-12-14T00:36:39.515Z,80.32
2022-12-14T00:39:11.419Z,79.69
2022-12-14T00:41:41.604Z,80.14
2022-12-14T00:44:10.751Z,79.68
2022-12-14T00:46:40.707Z,80.04
2022-12-14T00:49:10.613Z,80.11
2022-12-14T00:51:41.757Z,79.98
2022-12-14T00:54:11.238Z,80.41
2022-12-14T00:56:40.145Z,80.32
2022-12-14T00:59:11.607Z,80.11
2022-12-14T01:01:40.459Z,79.55
2022-12-14T01:04:21.089Z,79.92
2022-12-14T01:06:53.157Z,79.85
2022-12-14T01:09:24.965Z,79.62
2022-12-14T01:11:53.930Z,80.23
2022-12-14T01:14:23.413Z,79.95
2022-12-14T01:16:52.178Z,80.01
2022-12-14T01:19:20.829Z,80.06
2022-12-14T01:21:49.576Z,79.96
2022-12-14T01:24:19.406Z,79.79
2022-12-14T01:26:48.381Z,79.57
2022-12-14T01:29:17.254Z,79.84
2022-12-14T01:31:48.841Z,80.20
2022-12-14T01:34:18.746Z,79.47
2022-12-14T01:36:48.552Z,79.48
2022-12-14T01:39:18.887Z,80.15
2022-12-14T01:41:51.645Z,80.15
2022-12-14T01:44:52.764Z,80.05
2022-12-14T01:47:28.634Z,79.95
2022-12-14T01:50:03.013Z,80.01
2022-12-14T01:52:39.113Z,80.06
2022-12-14T01:55:13.765Z,80.14
2022-12-14T01:57:47.687Z,79.88
2022-12-14T02:00:18.087Z,79.73
2022-12-14T02:02:53.006Z,79.50
2022-12-14T02:05:25.131Z,79.42
2022-12-14T02:07:56.483Z,79.64
2022-12-14T02:10:29.379Z,79.96
2022-12-14T02:13:04.141Z,79.79
2022-12-14T02:15:35.284Z,79.53
2022-12-14T02:18:09.201Z,79.68
2022-12-14T02:20:53.343Z,79.35
2022-12-14T02:23:57.740Z,79.64
2022-12-14T02:26:57.143Z,80.17
2022-12-14T02:29:56.219Z,79.72
2022-12-14T02:32:50.158Z,79.53
2022-12-14T02:35:30.606Z,79.48
2022-12-14T02:38:12.714Z,79.53
2022-12-14T02:40:54.459Z,80.04
2022-12-14T02:43:31.152Z,79.65
2022-12-14T02:46:10.510Z,79.72
2022-12-14T02:48:45.292Z,79.56
2022-12-14T02:51:24.754Z,79.78
2022-12-14T02:54:01.156Z,79.97
2022-12-14T02:56:37.147Z,79.46
2022-12-14T02:59:10.451Z,79.58
2022-12-14T03:01:41.871Z,80.04
2022-12-14T03:04:16.181Z,80.09
2022-12-14T03:06:57.260Z,79.85
2022-12-14T03:09:29.831Z,79.87
2022-12-14T03:12:04.484Z,79.65
2022-12-14T03:14:39.066Z,79.67
2022-12-14T03:17:17.579Z,79.90
2022-12-14T03:19:53.257Z,80.03
2022-12-14T03:22:28.721Z,79.54
2022-12-14T03:25:01.626Z,79.76
2022-12-14T03:27:33.928Z,79.67
2022-12-14T03:30:08.577Z,79.41
2022-12-14T03:32:44.737Z,79.49
2022-12-14T03:35:19.465Z,79.47
2022-12-14T03:37:54.883Z,79.35
2022-12-14T03:40:30.939Z,79.65
2022-12-14T03:43:06.931Z,79.82
2022-12-14T03:45:46.938Z,79.84
2022-12-14T03:48:27.864Z,79.65
2022-12-14T03:51:07.332Z,79.80
2022-12-14T03:53:43.925Z,79.86
2022-12-14T03:56:19.869Z,79.73
2022-12-14T03:59:01.419Z,79.61
2022-12-14T04:01:40.394Z,79.63
2022-12-14T04:04:15.611Z,79.89
2022-12-14T04:06:52.957Z,79.61
2022-12-14T04:09:32.239Z,79.33
2022-12-14T04:12:26.756Z,79.61
2022-12-14T04:15:20.790Z,79.70
2022-12-14T04:18:27.700Z,79.82
2022-12-14T04:21:02.002Z,79.59
2022-12-14T04:23:52.601Z,79.75
2022-12-14T04:26:32.340Z,79.87
2022-12-14T04:29:25.983Z,80.01
2022-12-14T04:32:00.680Z,79.74
2022-12-14T04:34:32.590Z,79.67
2022-12-14T04:37:06.139Z,79.79
2022-12-14T04:39:40.413Z,79.57
2022-12-14T04:42:13.964Z,79.53
2022-12-14T04:44:47.445Z,79.93
2022-12-14T04:47:19.454Z,79.55
2022-12-14T04:49:54.828Z,79.49
2022-12-14T04:52:31.239Z,79.44
2022-12-14T04:55:05.465Z,79.58
2022-12-14T04:57:41.247Z,79.43
2022-12-14T05:00:14.409Z,79.11
2022-12-14T05:03:07.356Z,79.73
2022-12-14T05:05:42.932Z,79.46
2022-12-14T05:08:22.760Z,79.44
2022-12-14T05:11:21.866Z,79.47
2022-12-14T05:13:52.112Z,79.42
2022-12-14T05:16:25.627Z,79.57
2022-12-14T05:18:54.728Z,79.48
2022-12-14T05:21:42.089Z,79.53
2022-12-14T05:24:10.910Z,79.65
2022-12-14T05:26:41.926Z,79.72
2022-12-14T05:29:14.480Z,79.65
2022-12-14T05:31:49.311Z,79.62
2022-12-14T05:34:18.947Z,79.39
2022-12-14T05:36:47.833Z,79.51
2022-12-14T05:39:17.509Z,79.50
2022-12-14T05:41:47.871Z,79.89
2022-12-14T05:44:20.073Z,79.83
2022-12-14T05:46:49.870Z,79.55
2022-12-14T05:49:21.736Z,79.89
2022-12-14T05:51:50.662Z,79.96
2022-12-14T05:54:20.588Z,79.86
2022-12-14T05:56:50.979Z,79.85
2022-12-14T05:59:20.452Z,79.76
2022-12-14T06:01:52.099Z,80.03
2022-12-14T06:04:23.108Z,79.71
2022-12-14T06:06:52.513Z,79.83
2022-12-14T06:09:22.400Z,79.97
2022-12-14T06:11:52.312Z,79.90
2022-12-14T06:14:23.676Z,80.09
2022-12-14T06:16:52.380Z,79.90
2022-12-14T06:19:21.336Z,79.77
2022-12-14T06:21:52.933Z,80.10
2022-12-14T06:24:23.171Z,80.10
2022-12-14T06:26:52.367Z,79.82
2022-12-14T06:29:22.682Z,79.92
2022-12-14T06:31:52.656Z,79.90
2022-12-14T06:34:26.369Z,79.82
2022-12-14T06:36:57.274Z,79.70
2022-12-14T06:39:28.843Z,79.60
2022-12-14T06:41:58.738Z,79.82
2022-12-14T06:44:27.550Z,79.89
2022-12-14T06:46:57.056Z,79.94
2022-12-14T06:49:32.485Z,79.86
2022-12-14T06:52:01.181Z,79.66
2022-12-14T06:54:30.232Z,79.77
2022-12-14T06:56:58.948Z,79.90
2022-12-14T06:59:28.218Z,79.81
2022-12-14T07:01:57.211Z,79.82
2022-12-14T07:04:25.952Z,79.98
2022-12-14T07:06:54.790Z,80.08
2022-12-14T07:09:24.310Z,79.69
2022-12-14T07:11:52.960Z,79.80
2022-12-14T07:14:24.824Z,79.76
2022-12-14T07:16:54.023Z,79.90
2022-12-14T07:19:22.989Z,80.22
2022-12-14T07:21:54.069Z,79.67
2022-12-14T07:24:22.915Z,80.03
2022-12-14T07:26:52.729Z,80.06
2022-12-14T07:29:21.734Z,80.02
2022-12-14T07:31:50.847Z,79.65
2022-12-14T07:34:20.141Z,79.80
2022-12-14T07:36:51.370Z,79.62
2022-12-14T07:39:21.189Z,80.16
2022-12-14T07:41:50.418Z,80.09
2022-12-14T07:44:22.698Z,80.20
2022-12-14T07:46:54.410Z,80.04
2022-12-14T07:49:23.660Z,80.26
2022-12-14T07:51:53.350Z,80.36
2022-12-14T07:54:25.948Z,80.04
2022-12-14T07:56:54.689Z,80.16
2022-12-14T07:59:23.677Z,80.26
2022-12-14T08:01:55.108Z,80.45
2022-12-14T08:04:24.277Z,80.40
2022-12-14T08:06:53.166Z,80.45
2022-12-14T08:09:21.980Z,79.78
2022-12-14T08:11:50.754Z,79.95
2022-12-14T08:14:19.863Z,80.17
2022-12-14T08:16:50.432Z,80.16
2022-12-14T08:19:20.578Z,80.50
2022-12-14T08:21:49.297Z,80.17
2022-12-14T08:24:18.188Z,80.16
2022-12-14T08:26:49.563Z,80.12
2022-12-14T08:29:21.862Z,79.92
2022-12-14T08:31:50.777Z,79.96
2022-12-14T08:34:22.260Z,80.30
2022-12-14T08:36:50.971Z,80.62
2022-12-14T08:39:19.844Z,80.70
2022-12-14T08:41:48.660Z,80.74
2022-12-14T08:44:18.254Z,80.50
2022-12-14T08:46:50.592Z,80.07
2022-12-14T08:49:25.354Z,80.77
2022-12-14T08:51:57.919Z,80.46
2022-12-14T08:54:26.799Z,80.09
2022-12-14T08:56:55.546Z,80.21
2022-12-14T08:59:51.987Z,80.13
2022-12-14T09:02:13.505Z,80.23
2022-12-14T09:04:43.705Z,79.55
2022-12-14T09:07:12.597Z,78.97
2022-12-14T09:09:41.883Z,78.87
2022-12-14T09:12:12.281Z,79.94
2022-12-14T09:14:41.306Z,79.88
2022-12-14T09:17:10.005Z,79.72
2022-12-14T09:19:38.876Z,79.78
2022-12-14T09:22:07.734Z,79.94
2022-12-14T09:24:36.996Z,79.97
2022-12-14T09:27:05.657Z,80.12
2022-12-14T09:29:34.554Z,79.90
2022-12-14T09:32:03.546Z,79.86
2022-12-14T09:34:32.350Z,80.65
2022-12-14T09:37:04.153Z,80.49
2022-12-14T09:39:35.259Z,80.16
2022-12-14T09:42:20.346Z,80.67
2022-12-14T09:45:01.287Z,80.40
2022-12-14T09:47:35.501Z,80.29
2022-12-14T09:50:05.172Z,80.45
2022-12-14T09:52:39.572Z,77.57
2022-12-14T09:55:20.190Z,76.18
2022-12-14T09:57:53.499Z,74.91
2022-12-14T10:00:23.178Z,74.09
2022-12-14T10:03:07.863Z,73.04
2022-12-14T10:06:01.207Z,73.53
2022-12-14T10:08:35.313Z,72.16
2022-12-14T10:11:11.344Z,71.36
2022-12-14T10:13:56.489Z,71.73
2022-12-14T10:16:31.972Z,71.23
2022-12-14T10:19:24.241Z,69.88
2022-12-14T10:21:57.122Z,70.14
2022-12-14T10:24:30.722Z,70.45
2022-12-14T10:27:01.387Z,69.00
2022-12-14T10:29:37.766Z,69.14
2022-12-14T10:32:19.334Z,69.65
2022-12-14T10:34:48.543Z,69.21
2022-12-14T10:37:30.796Z,69.90
2022-12-14T10:40:29.221Z,70.02
2022-12-14T10:43:21.596Z,70.12
2022-12-14T10:46:06.115Z,69.65
2022-12-14T10:48:50.398Z,68.91
2022-12-14T10:51:24.923Z,68.96
2022-12-14T10:53:59.938Z,69.71
2022-12-14T10:56:31.907Z,70.25
2022-12-14T10:59:26.886Z,68.90
2022-12-14T11:02:05.718Z,69.30
2022-12-14T11:04:39.307Z,68.74
2022-12-14T11:07:14.810Z,69.05
2022-12-14T11:09:46.802Z,71.46
2022-12-14T11:12:23.049Z,71.60
2022-12-14T11:14:55.550Z,72.03
2022-12-14T11:17:37.343Z,72.52
2022-12-14T11:20:17.461Z,72.49
2022-12-14T11:22:50.419Z,73.53
2022-12-14T11:25:32.066Z,73.93
2022-12-14T11:28:36.170Z,73.99
2022-12-14T11:31:12.193Z,73.75
2022-12-14T11:33:49.809Z,73.80
2022-12-14T11:36:27.289Z,74.26
2022-12-14T11:38:57.419Z,74.42
2022-12-14T11:41:30.654Z,74.59
2022-12-14T11:44:21.635Z,74.46
2022-12-14T11:46:54.639Z,74.60
2022-12-14T11:49:29.140Z,74.71
2022-12-14T11:51:58.930Z,74.92
2022-12-14T11:54:28.367Z,74.84
2022-12-14T11:57:01.606Z,75.05
2022-12-14T11:59:38.501Z,75.01
2022-12-14T12:02:17.876Z,74.78
2022-12-14T12:04:52.852Z,74.92
2022-12-14T12:07:26.080Z,75.29
2022-12-14T12:09:55.475Z,75.35
2022-12-14T12:12:24.255Z,75.33
2022-12-14T12:14:58.255Z,75.14
2022-12-14T12:17:40.396Z,75.62
2022-12-14T12:20:28.132Z,75.24
2022-12-14T12:23:03.175Z,74.90
2022-12-14T12:25:37.658Z,75.30
2022-12-14T12:28:16.283Z,75.25
2022-12-14T12:30:50.988Z,75.16
2022-12-14T12:33:32.597Z,75.36
2022-12-14T12:36:04.845Z,75.18
2022-12-14T12:38:49.760Z,75.21
2022-12-14T13:07:44.815Z,75.10
2022-12-14T13:10:19.777Z,75.12
2022-12-14T13:12:51.527Z,75.00
2022-12-14T13:15:27.247Z,75.25
2022-12-14T13:18:00.324Z,75.25
2022-12-14T13:20:31.857Z,75.13
2022-12-14T13:23:21.648Z,75.20
2022-12-14T13:26:06.279Z,75.02
2022-12-14T13:28:50.514Z,74.89
2022-12-14T13:31:35.555Z,75.16
2022-12-14T13:34:28.368Z,75.11
2022-12-14T13:37:20.310Z,75.00
2022-12-14T13:40:20.316Z,75.06
2022-12-14T13:42:59.022Z,75.44
2022-12-14T13:45:40.077Z,75.65
2022-12-14T13:48:20.263Z,75.30
2022-12-14T13:51:01.821Z,75.31
2022-12-14T13:53:38.134Z,75.55
2022-12-14T13:56:08.028Z,75.35
2022-12-14T13:58:43.127Z,75.01
2022-12-14T14:01:16.083Z,75.47
2022-12-14T14:03:56.394Z,75.20
2022-12-14T14:06:41.430Z,75.66
2022-12-14T14:09:59.167Z,75.17
2022-12-14T14:12:38.729Z,75.76
2022-12-14T14:16:11.251Z,75.55
2022-12-14T14:18:47.200Z,75.42
2022-12-14T14:21:52.472Z,75.52
2022-12-14T14:24:27.584Z,75.04
2022-12-14T14:27:10.707Z,75.08
2022-12-14T14:29:46.670Z,75.84
2022-12-14T14:32:38.234Z,75.67
2022-12-14T14:35:22.865Z,75.83
2022-12-14T14:38:01.531Z,75.83
2022-12-14T14:41:06.672Z,75.63
2022-12-14T14:43:32.160Z,75.65
2022-12-14T14:46:07.285Z,75.75
2022-12-14T14:48:40.700Z,76.05
2022-12-14T14:51:21.197Z,76.02
2022-12-14T14:57:55.407Z,76.17
2022-12-14T15:00:25.178Z,75.60
2022-12-14T15:02:55.552Z,75.94
2022-12-14T15:05:43.820Z,76.14
2022-12-14T15:08:22.529Z,76.06
2022-12-14T15:10:54.000Z,75.85
2022-12-14T15:13:28.429Z,75.76
2022-12-14T15:15:58.971Z,75.63
2022-12-14T15:18:30.583Z,75.54
2022-12-14T15:21:03.432Z,75.67
2022-12-14T15:23:38.002Z,75.89
2022-12-14T15:26:16.963Z,75.54
2022-12-14T15:28:52.795Z,76.13
2022-12-14T15:31:30.935Z,75.56
2022-12-14T15:34:01.260Z,75.61
2022-12-14T15:36:34.954Z,76.24
2022-12-14T15:39:04.499Z,76.00
2022-12-14T15:41:35.312Z,76.33
2022-12-14T15:44:20.473Z,75.68
2022-12-14T15:46:55.103Z,76.29
2022-12-14T15:49:24.236Z,75.66
2022-12-14T15:51:57.125Z,76.02
2022-12-14T15:54:28.854Z,75.96
2022-12-14T15:56:59.941Z,76.25
2022-12-14T15:59:32.031Z,76.46
2022-12-14T16:02:15.101Z,75.98
2022-12-14T16:04:45.524Z,76.20
2022-12-14T16:07:19.384Z,75.82
2022-12-14T16:09:51.952Z,75.91
2022-12-14T16:12:24.294Z,76.08
2022-12-14T16:14:56.910Z,76.67
2022-12-14T16:17:31.615Z,76.48
2022-12-14T16:20:04.797Z,75.92
2022-12-14T16:22:38.363Z,76.37
2022-12-14T16:25:19.817Z,76.34
2022-12-14T16:27:50.929Z,76.60
2022-12-14T16:30:30.640Z,76.44
2022-12-14T16:33:18.250Z,76.05
2022-12-14T16:35:58.078Z,76.11
2022-12-14T16:38:27.277Z,76.71
2022-12-14T16:41:05.187Z,76.78
2022-12-14T16:43:37.613Z,76.21
2022-12-14T16:46:21.129Z,76.13
2022-12-14T16:49:19.466Z,76.17
2022-12-14T16:52:07.237Z,76.49
2022-12-14T16:54:41.008Z,76.24
2022-12-14T16:57:20.443Z,76.31
2022-12-14T17:00:02.266Z,76.88
2022-12-14T17:02:36.308Z,76.32
2022-12-14T17:05:16.530Z,76.29
2022-12-14T17:07:47.665Z,76.96
2022-12-14T17:10:25.231Z,77.02
2022-12-14T17:13:01.929Z,76.57
2022-12-14T17:15:39.123Z,76.48
2022-12-14T17:18:13.987Z,76.46
2022-12-14T17:20:46.763Z,76.52
2022-12-14T17:23:18.520Z,76.79
2022-12-14T17:25:49.024Z,76.41
2022-12-14T17:28:25.048Z,76.81
2022-12-14T17:30:57.538Z,76.70
2022-12-14T17:33:28.792Z,77.02
2022-12-14T17:35:58.478Z,76.62
2022-12-14T17:38:27.508Z,77.00
2022-12-14T17:41:02.863Z,76.87
2022-12-14T17:43:35.600Z,76.70
2022-12-14T17:46:07.131Z,76.68
2022-12-14T17:48:40.658Z,77.24
2022-12-14T17:51:25.166Z,77.19
2022-12-14T17:53:56.150Z,77.28
2022-12-14T17:56:30.282Z,77.37
2022-12-14T17:59:01.714Z,77.24
2022-12-14T18:04:22.535Z,76.90
2022-12-14T18:07:00.909Z,76.73
2022-12-14T18:09:34.040Z,76.82
2022-12-14T18:14:55.000Z,77.22
2022-12-14T18:17:25.149Z,77.52
2022-12-14T18:19:59.457Z,77.09
2022-12-14T18:22:28.989Z,77.33
2022-12-14T18:25:08.507Z,76.89
2022-12-14T18:27:38.518Z,77.00
2022-12-14T18:30:12.120Z,77.25
2022-12-14T18:32:51.881Z,77.42
2022-12-14T18:35:26.226Z,77.52
2022-12-14T18:37:56.833Z,77.35
2022-12-14T18:40:29.496Z,76.88
2022-12-14T18:42:58.893Z,77.13
2022-12-14T18:45:33.806Z,77.21
2022-12-14T18:48:10.879Z,77.20
2022-12-14T18:50:49.667Z,77.05
2022-12-14T18:53:21.760Z,77.22
2022-12-14T18:56:01.712Z,77.67
2022-12-14T18:58:45.581Z,77.45
2022-12-14T19:01:18.520Z,77.08
2022-12-14T19:03:49.012Z,77.42
2022-12-14T19:06:43.615Z,77.55
2022-12-14T19:09:13.413Z,77.33
2022-12-14T19:11:48.134Z,77.49
2022-12-14T19:14:20.446Z,77.21
2022-12-14T19:16:52.182Z,77.69
2022-12-14T19:19:24.296Z,77.50
2022-12-14T19:21:57.615Z,77.49
2022-12-14T19:24:27.760Z,77.78
2022-12-14T19:26:58.519Z,77.41
2022-12-14T19:29:28.452Z,77.60
2022-12-14T19:32:05.327Z,77.07
2022-12-14T19:34:36.841Z,77.77
2022-12-14T19:37:06.967Z,77.53
2022-12-14T19:39:37.721Z,77.75
2022-12-14T19:42:07.103Z,77.60
2022-12-14T19:44:36.860Z,77.55
2022-12-14T19:47:06.449Z,77.60
2022-12-14T19:49:36.086Z,77.48
2022-12-14T19:52:09.080Z,77.68
2022-12-14T19:54:39.559Z,77.64
2022-12-14T19:57:11.081Z,77.55
2022-12-14T19:59:44.876Z,77.35
2022-12-14T20:02:15.087Z,77.85
2022-12-14T20:04:47.029Z,77.82
2022-12-14T20:07:16.682Z,77.70
2022-12-14T20:09:47.685Z,77.97
2022-12-14T20:12:18.060Z,77.68
2022-12-14T20:14:49.344Z,78.17
2022-12-14T20:17:19.387Z,77.54
2022-12-14T20:19:48.789Z,77.51
2022-12-14T20:22:18.165Z,78.16
2022-12-14T20:24:48.277Z,77.45
2022-12-14T20:27:20.018Z,77.71
2022-12-14T20:29:50.973Z,77.82
2022-12-14T20:32:20.097Z,77.83
2022-12-14T20:34:49.567Z,77.53
2022-12-14T20:37:34.276Z,77.76
2022-12-14T20:40:02.415Z,78.10
2022-12-14T20:42:31.431Z,77.88
2022-12-14T20:45:06.702Z,77.81
2022-12-14T20:47:36.180Z,77.65
2022-12-14T20:50:06.258Z,77.84
2022-12-14T20:52:35.211Z,77.88
2022-12-14T20:55:04.672Z,78.06
2022-12-14T20:57:33.747Z,78.07
2022-12-14T21:00:05.620Z,78.11
2022-12-14T21:02:34.439Z,78.07
2022-12-14T21:05:04.421Z,78.03
2022-12-14T21:07:33.253Z,77.87
2022-12-14T21:10:04.944Z,78.40
2022-12-14T21:12:36.375Z,77.91
2022-12-14T21:15:06.841Z,77.89
2022-12-14T21:17:35.729Z,78.03
2022-12-14T21:20:05.702Z,78.19
2022-12-14T21:22:35.163Z,78.12
2022-12-14T21:25:06.385Z,78.20
2022-12-14T21:27:38.406Z,77.97
2022-12-14T21:30:13.477Z,78.04
2022-12-14T21:32:42.392Z,78.33
2022-12-14T21:35:12.695Z,78.02
2022-12-14T21:37:42.267Z,78.36
2022-12-14T21:40:33.693Z,78.57
2022-12-14T21:43:07.249Z,78.09
2022-12-14T21:45:38.975Z,78.37
2022-12-14T21:48:08.007Z,78.19
2022-12-14T21:50:42.318Z,78.09
2022-12-14T21:53:11.359Z,78.41
2022-12-14T21:55:49.336Z,78.34
2022-12-14T21:58:18.223Z,78.69
2022-12-14T22:00:47.772Z,78.58
2022-12-14T22:03:16.988Z,78.47
2022-12-14T22:05:46.573Z,78.44
2022-12-14T22:08:15.299Z,78.50
2022-12-14T22:10:44.273Z,78.64
2022-12-14T22:13:15.486Z,78.67
2022-12-14T22:15:46.223Z,78.70
2022-12-14T22:18:18.384Z,78.58
2022-12-14T22:20:50.638Z,78.69
2022-12-14T22:23:19.598Z,78.69
2022-12-14T22:25:50.186Z,78.69
2022-12-14T22:28:18.929Z,78.70
2022-12-14T22:30:48.370Z,78.68
2022-12-14T22:33:17.910Z,78.73
2022-12-14T22:35:47.516Z,78.93
2022-12-14T22:38:16.586Z,78.77
2022-12-14T22:40:46.098Z,78.70
2022-12-14T22:43:14.984Z,78.71
2022-12-14T22:45:44.317Z,78.71
2022-12-14T22:48:14.004Z,78.75
2022-12-14T22:50:43.360Z,78.72
2022-12-14T22:53:13.445Z,78.84
2022-12-14T22:55:46.296Z,78.71
2022-12-14T22:58:19.723Z,78.74
2022-12-14T23:00:49.668Z,78.84
2022-12-14T23:03:18.489Z,78.61
2022-12-14T23:05:50.223Z,78.76
2022-12-14T23:08:18.957Z,78.82
2022-12-14T23:11:06.685Z,78.94
2022-12-14T23:13:53.769Z,78.59
2022-12-14T23:16:41.074Z,78.56
2022-12-14T23:19:28.175Z,78.85
2022-12-14T23:22:15.156Z,79.19
2022-12-14T23:25:02.230Z,79.04
2022-12-14T23:27:49.328Z,78.79
2022-12-14T23:30:37.227Z,79.04
2022-12-14T23:33:24.286Z,78.86
2022-12-14T23:36:11.398Z,78.82
2022-12-14T23:38:58.892Z,78.80
2022-12-14T23:41:47.068Z,79.15
2022-12-14T23:44:34.423Z,78.99
2022-12-14T23:47:24.300Z,79.09
2022-12-14T23:50:11.768Z,78.84
2022-12-14T23:52:59.046Z,79.02
2022-12-14T23:55:49.716Z,78.85
2022-12-14T23:58:37.047Z,78.96
